LSMALSME

Guest
Details From LSMA - Alpnach
To LSME - Emmen
Flight Number -
Tags Routegen Generated
Created
Modified
Stats Distance 17 nm / 32 km
Max Altitude 100 ft / 30 m
Waypoints 5
Social Downloads 0
Likes 0
Share

Download

Looking for another format? Having issues loading an existing format? Contact us
Advertisement - Login to hide

Notes

Departing runway 0 LSMA. Arriving runway 3 LSME.

Route

LSMA +47.02_+008.30 +47.09_+008.34 +47.16_+008.38 LSME

ID Type Via Altitude (ft/m) Position (lat/lon) Dist (leg/tot) Name
O LSMA APT - 0 / 0 46.95000 / 8.28667 - / 0 nm
+47.02_+008.30 LATLON - 100 / 30 47.02133 / 8.30453 4 / 4 nm
+47.09_+008.34 LATLON - 100 / 30 47.09000 / 8.34225 4 / 8 nm
+47.16_+008.38 LATLON - 100 / 30 47.15868 / 8.37996 4 / 13 nm
O LSME APT - 0 / 0 47.10129 / 8.31517 4 / 17 nm

Altitude Profile

Advertisement - Login to hide

LSMA

Details ICAO LSMA
Name Alpnach
Region Switzerland
Timezone Europe/Zurich (UTC+2.0)
Stats Elevation 1,460 ft / 445 m (AMSL)
Location 46.943300° 8.285000°
Runways 1
Magnetic Variation 2.680° E

METAR

LSMA 122350Z AUTO 19004KT 9999NDV -SHRA FEW015 OVC052 02/00 Q1028 RMK

Decode

TAF

TAF LSMA 121625Z 1217/1323 04007KT 9999 -RA FEW018 BKN025 OVC055 TEMPO 1301/1306 4000 BR PROB30 TEMPO 1313/1318 SHRA

Decode

Departure Runways

ID Width Length Bearing (true/mag) Surface Threshold Overrun Markings Lighting
01 130 ft / 40 m 4,936 ft / 1,504 m 9.69° / 7.01° ASPHALT 0 ft / 0 m 328 ft / 100 m APP EDGE THRESHOLD SALS TDZ
19 130 ft / 40 m 4,936 ft / 1,504 m 189.69° / 187.01° ASPHALT 0 ft / 0 m 1,640 ft / 500 m APP EDGE THRESHOLD MALS

LSME

Details ICAO LSME (EML)
Name Emmen
Region Switzerland
Timezone Europe/Zurich (UTC+2.0)
Stats Elevation 1,400 ft / 427 m (AMSL)
Location 47.092300° 8.305070°
Runways 1
Magnetic Variation 2.687° E

METAR

LSME 122350Z AUTO 00000KT 9999NDV FEW055 OVC083 01/00 Q1028 RMK

Decode

TAF

TAF LSME 121625Z 1217/1323 VRB03KT 9999 -RA FEW011 SCT040 OVC050 TEMPO 1301/1305 4000 BR PROB30 TEMPO 1313/1318 SHRA

Decode

Destination Runways

ID Width Length Bearing (true/mag) Surface Threshold Overrun Markings Lighting
04 130 ft / 40 m 8,265 ft / 2,519 m 37.58° / 34.89° ASPHALT 427 ft / 130 m 797 ft / 243 m VISUAL EDGE THRESHOLD ALSF-I REIL-OMNI
22 130 ft / 40 m 8,265 ft / 2,519 m 217.59° / 214.91° ASPHALT 591 ft / 180 m 748 ft / 228 m VISUAL EDGE THRESHOLD ALSF-II TDZ REIL-OMNI

Approach Navaids

Runway Type Ident Frequency Range Bearing (true/mag) Slope Elevation
22 DME IEM 110.35 MHz 18 nm / 33 km - - 1,406 ft / 429 m (AMSL)
22 LOC-ILS IEM 110.35 MHz 18 nm / 33 km 217.59° / 214.90 ° - 1,400 ft / 427 m (AMSL)
22 GS IEM 110.35 MHz 10 nm / 19 km 217.59° / 214.90 ° 4.00° 1,400 ft / 427 m (AMSL)

Popular Alternatives